sensor_id;sensor_type;location;lat;lon;timestamp;P1;durP1;ratioP1;P2;durP2;ratioP2
18104;SDS011;9179;50.968;3.134;2024-02-21T00:01:31;3.65;;;3.22;;
18104;SDS011;9179;50.968;3.134;2024-02-21T00:03:58;3.75;;;2.70;;
18104;SDS011;9179;50.968;3.134;2024-02-21T00:06:24;4.00;;;3.63;;
18104;SDS011;9179;50.968;3.134;2024-02-21T00:08:52;5.38;;;3.05;;
18104;SDS011;9179;50.968;3.134;2024-02-21T00:11:19;3.05;;;2.75;;
18104;SDS011;9179;50.968;3.134;2024-02-21T00:13:46;3.28;;;3.08;;
18104;SDS011;9179;50.968;3.134;2024-02-21T00:16:12;3.53;;;3.10;;
18104;SDS011;9179;50.968;3.134;2024-02-21T00:18:42;3.58;;;3.38;;
18104;SDS011;9179;50.968;3.134;2024-02-21T00:21:09;3.05;;;2.75;;
18104;SDS011;9179;50.968;3.134;2024-02-21T00:23:40;3.90;;;3.50;;
18104;SDS011;9179;50.968;3.134;2024-02-21T00:26:07;4.25;;;3.80;;
18104;SDS011;9179;50.968;3.134;2024-02-21T00:28:34;3.60;;;3.17;;
18104;SDS011;9179;50.968;3.134;2024-02-21T00:31:00;5.57;;;3.30;;
18104;SDS011;9179;50.968;3.134;2024-02-21T00:33:27;3.42;;;3.05;;
18104;SDS011;9179;50.968;3.134;2024-02-21T00:35:56;3.38;;;3.13;;
18104;SDS011;9179;50.968;3.134;2024-02-21T00:38:22;3.75;;;3.45;;
18104;SDS011;9179;50.968;3.134;2024-02-21T00:40:49;3.80;;;3.50;;
18104;SDS011;9179;50.968;3.134;2024-02-21T00:43:16;3.95;;;3.65;;
18104;SDS011;9179;50.968;3.134;2024-02-21T00:45:43;4.30;;;3.33;;
18104;SDS011;9179;50.968;3.134;2024-02-21T00:48:10;4.32;;;3.92;;
18104;SDS011;9179;50.968;3.134;2024-02-21T00:50:37;4.50;;;3.30;;
18104;SDS011;9179;50.968;3.134;2024-02-21T00:53:06;4.85;;;3.50;;
18104;SDS011;9179;50.968;3.134;2024-02-21T00:55:33;3.88;;;3.15;;
18104;SDS011;9179;50.968;3.134;2024-02-21T00:58:00;5.18;;;4.30;;
18104;SDS011;9179;50.968;3.134;2024-02-21T01:00:27;4.47;;;3.80;;
18104;SDS011;9179;50.968;3.134;2024-02-21T01:02:54;4.32;;;4.00;;
18104;SDS011;9179;50.968;3.134;2024-02-21T01:05:21;4.10;;;3.70;;
18104;SDS011;9179;50.968;3.134;2024-02-21T01:07:48;4.20;;;3.80;;
18104;SDS011;9179;50.968;3.134;2024-02-21T01:10:17;5.28;;;4.78;;
18104;SDS011;9179;50.968;3.134;2024-02-21T01:12:43;7.47;;;4.40;;
18104;SDS011;9179;50.968;3.134;2024-02-21T01:15:10;5.05;;;4.05;;
18104;SDS011;9179;50.968;3.134;2024-02-21T01:17:37;7.80;;;4.72;;
18104;SDS011;9179;50.968;3.134;2024-02-21T01:20:06;4.53;;;4.18;;
18104;SDS011;9179;50.968;3.134;2024-02-21T01:22:33;4.38;;;3.45;;
18104;SDS011;9179;50.968;3.134;2024-02-21T01:25:00;7.05;;;3.85;;
18104;SDS011;9179;50.968;3.134;2024-02-21T01:27:28;5.13;;;4.35;;
18104;SDS011;9179;50.968;3.134;2024-02-21T01:29:55;6.10;;;3.78;;
18104;SDS011;9179;50.968;3.134;2024-02-21T01:32:22;6.57;;;4.53;;
18104;SDS011;9179;50.968;3.134;2024-02-21T01:34:49;5.13;;;4.63;;
18104;SDS011;9179;50.968;3.134;2024-02-21T01:37:16;4.63;;;4.10;;
18104;SDS011;9179;50.968;3.134;2024-02-21T01:39:43;4.85;;;4.43;;
18104;SDS011;9179;50.968;3.134;2024-02-21T01:42:10;4.85;;;4.35;;
18104;SDS011;9179;50.968;3.134;2024-02-21T01:44:38;7.53;;;4.70;;
18104;SDS011;9179;50.968;3.134;2024-02-21T01:47:06;5.85;;;4.75;;
18104;SDS011;9179;50.968;3.134;2024-02-21T01:49:34;6.97;;;5.45;;
18104;SDS011;9179;50.968;3.134;2024-02-21T01:52:01;5.78;;;5.28;;
18104;SDS011;9179;50.968;3.134;2024-02-21T01:54:29;6.43;;;5.82;;
18104;SDS011;9179;50.968;3.134;2024-02-21T01:56:57;5.93;;;5.32;;
18104;SDS011;9179;50.968;3.134;2024-02-21T01:59:24;7.38;;;5.57;;
18104;SDS011;9179;50.968;3.134;2024-02-21T02:01:53;7.05;;;5.70;;
18104;SDS011;9179;50.968;3.134;2024-02-21T02:04:22;10.65;;;5.95;;
18104;SDS011;9179;50.968;3.134;2024-02-21T02:06:52;8.65;;;6.13;;
18104;SDS011;9179;50.968;3.134;2024-02-21T02:09:21;10.02;;;6.18;;
18104;SDS011;9179;50.968;3.134;2024-02-21T02:11:48;8.82;;;6.85;;
18104;SDS011;9179;50.968;3.134;2024-02-21T02:14:15;11.23;;;6.72;;
18104;SDS011;9179;50.968;3.134;2024-02-21T02:16:42;8.43;;;7.18;;
18104;SDS011;9179;50.968;3.134;2024-02-21T02:19:14;10.80;;;6.43;;
18104;SDS011;9179;50.968;3.134;2024-02-21T02:21:42;9.18;;;7.43;;
18104;SDS011;9179;50.968;3.134;2024-02-21T02:24:14;8.20;;;6.70;;
18104;SDS011;9179;50.968;3.134;2024-02-21T02:26:41;10.55;;;7.75;;
18104;SDS011;9179;50.968;3.134;2024-02-21T02:29:08;12.32;;;7.22;;
18104;SDS011;9179;50.968;3.134;2024-02-21T02:31:36;12.55;;;7.85;;
18104;SDS011;9179;50.968;3.134;2024-02-21T02:34:03;9.60;;;6.88;;
18104;SDS011;9179;50.968;3.134;2024-02-21T02:36:32;8.45;;;7.45;;
18104;SDS011;9179;50.968;3.134;2024-02-21T02:38:59;10.38;;;7.68;;
18104;SDS011;9179;50.968;3.134;2024-02-21T02:41:27;9.65;;;6.93;;
18104;SDS011;9179;50.968;3.134;2024-02-21T02:43:54;8.77;;;6.93;;
18104;SDS011;9179;50.968;3.134;2024-02-21T02:46:21;10.43;;;6.63;;
18104;SDS011;9179;50.968;3.134;2024-02-21T02:48:48;8.13;;;6.13;;
18104;SDS011;9179;50.968;3.134;2024-02-21T02:51:15;9.00;;;6.47;;
18104;SDS011;9179;50.968;3.134;2024-02-21T02:53:42;9.02;;;7.13;;
18104;SDS011;9179;50.968;3.134;2024-02-21T02:56:13;7.15;;;6.38;;
18104;SDS011;9179;50.968;3.134;2024-02-21T02:58:42;10.35;;;6.03;;
18104;SDS011;9179;50.968;3.134;2024-02-21T03:01:09;11.25;;;7.50;;
18104;SDS011;9179;50.968;3.134;2024-02-21T03:03:36;9.63;;;6.45;;
18104;SDS011;9179;50.968;3.134;2024-02-21T03:06:03;10.50;;;6.85;;
18104;SDS011;9179;50.968;3.134;2024-02-21T03:08:30;9.98;;;6.70;;
18104;SDS011;9179;50.968;3.134;2024-02-21T03:10:58;12.73;;;7.40;;
18104;SDS011;9179;50.968;3.134;2024-02-21T03:13:25;9.50;;;7.28;;
18104;SDS011;9179;50.968;3.134;2024-02-21T03:15:53;14.07;;;7.38;;
18104;SDS011;9179;50.968;3.134;2024-02-21T03:18:20;10.70;;;6.95;;
18104;SDS011;9179;50.968;3.134;2024-02-21T03:20:47;10.18;;;7.35;;
18104;SDS011;9179;50.968;3.134;2024-02-21T03:23:14;7.55;;;6.85;;
18104;SDS011;9179;50.968;3.134;2024-02-21T03:25:41;11.77;;;7.20;;
18104;SDS011;9179;50.968;3.134;2024-02-21T03:28:08;11.80;;;7.43;;
18104;SDS011;9179;50.968;3.134;2024-02-21T03:30:35;8.48;;;6.97;;
18104;SDS011;9179;50.968;3.134;2024-02-21T03:33:03;11.43;;;7.50;;
18104;SDS011;9179;50.968;3.134;2024-02-21T03:35:30;9.77;;;6.53;;
18104;SDS011;9179;50.968;3.134;2024-02-21T03:37:57;13.35;;;7.45;;
18104;SDS011;9179;50.968;3.134;2024-02-21T03:40:24;13.18;;;6.65;;
18104;SDS011;9179;50.968;3.134;2024-02-21T03:42:51;9.23;;;6.82;;
18104;SDS011;9179;50.968;3.134;2024-02-21T03:45:18;12.50;;;7.07;;
18104;SDS011;9179;50.968;3.134;2024-02-21T03:47:45;11.18;;;7.70;;
18104;SDS011;9179;50.968;3.134;2024-02-21T03:50:13;10.88;;;7.22;;
18104;SDS011;9179;50.968;3.134;2024-02-21T03:52:40;14.60;;;7.18;;
18104;SDS011;9179;50.968;3.134;2024-02-21T03:55:07;14.23;;;8.68;;
18104;SDS011;9179;50.968;3.134;2024-02-21T03:57:34;7.57;;;6.78;;
18104;SDS011;9179;50.968;3.134;2024-02-21T04:00:01;14.48;;;7.63;;
18104;SDS011;9179;50.968;3.134;2024-02-21T04:02:29;7.80;;;6.97;;
18104;SDS011;9179;50.968;3.134;2024-02-21T04:04:56;8.93;;;6.93;;
18104;SDS011;9179;50.968;3.134;2024-02-21T04:07:24;12.25;;;8.25;;
18104;SDS011;9179;50.968;3.134;2024-02-21T04:09:51;13.93;;;7.85;;
18104;SDS011;9179;50.968;3.134;2024-02-21T04:12:18;10.63;;;7.38;;
18104;SDS011;9179;50.968;3.134;2024-02-21T04:14:46;8.60;;;7.78;;
18104;SDS011;9179;50.968;3.134;2024-02-21T04:17:13;14.10;;;7.43;;
18104;SDS011;9179;50.968;3.134;2024-02-21T04:19:39;8.88;;;7.13;;
18104;SDS011;9179;50.968;3.134;2024-02-21T04:22:06;9.82;;;7.72;;
18104;SDS011;9179;50.968;3.134;2024-02-21T04:24:35;9.00;;;8.02;;
18104;SDS011;9179;50.968;3.134;2024-02-21T04:27:02;10.05;;;7.45;;
18104;SDS011;9179;50.968;3.134;2024-02-21T04:29:29;12.27;;;8.48;;
18104;SDS011;9179;50.968;3.134;2024-02-21T04:31:56;9.90;;;7.65;;
18104;SDS011;9179;50.968;3.134;2024-02-21T04:34:23;11.15;;;8.32;;
18104;SDS011;9179;50.968;3.134;2024-02-21T04:36:49;9.15;;;7.22;;
18104;SDS011;9179;50.968;3.134;2024-02-21T04:39:16;10.10;;;7.50;;
18104;SDS011;9179;50.968;3.134;2024-02-21T04:41:45;9.45;;;8.18;;
18104;SDS011;9179;50.968;3.134;2024-02-21T04:44:12;14.15;;;7.28;;
18104;SDS011;9179;50.968;3.134;2024-02-21T04:46:41;11.90;;;7.57;;
18104;SDS011;9179;50.968;3.134;2024-02-21T04:49:08;10.48;;;8.60;;
18104;SDS011;9179;50.968;3.134;2024-02-21T04:51:35;9.27;;;6.97;;
18104;SDS011;9179;50.968;3.134;2024-02-21T04:54:02;11.82;;;7.15;;
18104;SDS011;9179;50.968;3.134;2024-02-21T04:56:29;11.23;;;7.95;;
18104;SDS011;9179;50.968;3.134;2024-02-21T04:58:58;9.48;;;7.07;;
18104;SDS011;9179;50.968;3.134;2024-02-21T05:01:24;9.15;;;7.07;;
18104;SDS011;9179;50.968;3.134;2024-02-21T05:03:51;10.32;;;6.95;;
18104;SDS011;9179;50.968;3.134;2024-02-21T05:06:18;9.43;;;7.00;;
18104;SDS011;9179;50.968;3.134;2024-02-21T05:08:45;7.72;;;6.40;;
18104;SDS011;9179;50.968;3.134;2024-02-21T05:11:13;11.25;;;8.15;;
18104;SDS011;9179;50.968;3.134;2024-02-21T05:13:40;8.30;;;7.15;;
18104;SDS011;9179;50.968;3.134;2024-02-21T05:16:08;7.82;;;6.80;;
18104;SDS011;9179;50.968;3.134;2024-02-21T05:18:35;6.95;;;6.30;;
18104;SDS011;9179;50.968;3.134;2024-02-21T05:21:02;8.32;;;6.85;;
18104;SDS011;9179;50.968;3.134;2024-02-21T05:23:30;7.85;;;6.00;;
18104;SDS011;9179;50.968;3.134;2024-02-21T05:25:56;10.82;;;7.20;;
18104;SDS011;9179;50.968;3.134;2024-02-21T05:28:23;9.27;;;7.45;;
18104;SDS011;9179;50.968;3.134;2024-02-21T05:30:50;10.73;;;7.45;;
18104;SDS011;9179;50.968;3.134;2024-02-21T05:33:19;9.60;;;6.93;;
18104;SDS011;9179;50.968;3.134;2024-02-21T05:35:47;8.57;;;6.00;;
18104;SDS011;9179;50.968;3.134;2024-02-21T05:38:14;9.60;;;7.43;;
18104;SDS011;9179;50.968;3.134;2024-02-21T05:40:41;10.57;;;7.25;;
18104;SDS011;9179;50.968;3.134;2024-02-21T05:43:08;7.63;;;6.93;;
18104;SDS011;9179;50.968;3.134;2024-02-21T05:45:35;8.90;;;6.75;;
18104;SDS011;9179;50.968;3.134;2024-02-21T05:48:02;9.43;;;6.93;;
18104;SDS011;9179;50.968;3.134;2024-02-21T05:50:31;8.05;;;6.32;;
18104;SDS011;9179;50.968;3.134;2024-02-21T05:52:58;7.35;;;6.60;;
18104;SDS011;9179;50.968;3.134;2024-02-21T05:55:25;8.57;;;6.38;;
18104;SDS011;9179;50.968;3.134;2024-02-21T05:57:53;9.77;;;6.03;;
18104;SDS011;9179;50.968;3.134;2024-02-21T06:00:20;8.73;;;6.22;;
18104;SDS011;9179;50.968;3.134;2024-02-21T06:02:47;8.77;;;5.78;;
18104;SDS011;9179;50.968;3.134;2024-02-21T06:05:14;7.20;;;6.18;;
18104;SDS011;9179;50.968;3.134;2024-02-21T06:07:43;8.50;;;6.25;;
18104;SDS011;9179;50.968;3.134;2024-02-21T06:10:10;6.85;;;5.50;;
18104;SDS011;9179;50.968;3.134;2024-02-21T06:12:37;7.82;;;5.93;;
18104;SDS011;9179;50.968;3.134;2024-02-21T06:15:04;7.63;;;6.45;;
18104;SDS011;9179;50.968;3.134;2024-02-21T06:17:32;9.63;;;6.35;;
18104;SDS011;9179;50.968;3.134;2024-02-21T06:19:58;8.73;;;5.55;;
18104;SDS011;9179;50.968;3.134;2024-02-21T06:22:25;9.25;;;6.03;;
18104;SDS011;9179;50.968;3.134;2024-02-21T06:24:54;7.47;;;6.15;;
18104;SDS011;9179;50.968;3.134;2024-02-21T06:27:21;7.55;;;6.57;;
18104;SDS011;9179;50.968;3.134;2024-02-21T06:29:49;7.45;;;6.30;;
18104;SDS011;9179;50.968;3.134;2024-02-21T06:32:16;8.25;;;5.60;;
18104;SDS011;9179;50.968;3.134;2024-02-21T06:34:43;6.88;;;6.07;;
18104;SDS011;9179;50.968;3.134;2024-02-21T06:37:10;8.25;;;5.80;;
18104;SDS011;9179;50.968;3.134;2024-02-21T06:39:37;6.93;;;6.18;;
18104;SDS011;9179;50.968;3.134;2024-02-21T06:42:07;6.53;;;5.72;;
18104;SDS011;9179;50.968;3.134;2024-02-21T06:44:34;8.80;;;5.95;;
18104;SDS011;9179;50.968;3.134;2024-02-21T06:47:05;11.20;;;6.43;;
18104;SDS011;9179;50.968;3.134;2024-02-21T06:49:32;6.90;;;5.90;;
18104;SDS011;9179;50.968;3.134;2024-02-21T06:51:59;7.18;;;5.70;;
18104;SDS011;9179;50.968;3.134;2024-02-21T06:54:26;8.20;;;6.25;;
18104;SDS011;9179;50.968;3.134;2024-02-21T06:56:53;6.78;;;5.50;;
18104;SDS011;9179;50.968;3.134;2024-02-21T06:59:21;7.47;;;5.63;;
18104;SDS011;9179;50.968;3.134;2024-02-21T07:01:48;7.10;;;6.35;;
18104;SDS011;9179;50.968;3.134;2024-02-21T07:04:16;8.07;;;6.07;;
18104;SDS011;9179;50.968;3.134;2024-02-21T07:06:43;7.22;;;6.15;;
18104;SDS011;9179;50.968;3.134;2024-02-21T07:09:10;7.10;;;5.60;;
18104;SDS011;9179;50.968;3.134;2024-02-21T07:11:37;7.45;;;6.38;;
18104;SDS011;9179;50.968;3.134;2024-02-21T07:14:03;7.78;;;5.78;;
18104;SDS011;9179;50.968;3.134;2024-02-21T07:16:32;8.13;;;6.00;;
18104;SDS011;9179;50.968;3.134;2024-02-21T07:18:59;8.10;;;6.03;;
18104;SDS011;9179;50.968;3.134;2024-02-21T07:21:26;7.38;;;5.93;;
18104;SDS011;9179;50.968;3.134;2024-02-21T07:23:52;5.75;;;5.20;;
18104;SDS011;9179;50.968;3.134;2024-02-21T07:26:20;9.93;;;6.78;;
18104;SDS011;9179;50.968;3.134;2024-02-21T07:28:46;6.85;;;6.15;;
18104;SDS011;9179;50.968;3.134;2024-02-21T07:31:13;7.45;;;5.95;;
18104;SDS011;9179;50.968;3.134;2024-02-21T07:33:42;7.00;;;6.00;;
18104;SDS011;9179;50.968;3.134;2024-02-21T07:36:09;8.50;;;6.00;;
18104;SDS011;9179;50.968;3.134;2024-02-21T07:38:37;6.45;;;5.85;;
18104;SDS011;9179;50.968;3.134;2024-02-21T07:41:04;7.75;;;5.45;;
18104;SDS011;9179;50.968;3.134;2024-02-21T07:43:31;7.97;;;5.65;;
18104;SDS011;9179;50.968;3.134;2024-02-21T07:45:57;7.85;;;6.10;;
18104;SDS011;9179;50.968;3.134;2024-02-21T07:48:24;7.93;;;5.88;;
18104;SDS011;9179;50.968;3.134;2024-02-21T07:50:53;6.82;;;6.22;;
18104;SDS011;9179;50.968;3.134;2024-02-21T07:53:20;8.88;;;6.72;;
18104;SDS011;9179;50.968;3.134;2024-02-21T07:55:47;9.35;;;6.28;;
18104;SDS011;9179;50.968;3.134;2024-02-21T07:58:14;7.63;;;5.93;;
18104;SDS011;9179;50.968;3.134;2024-02-21T08:00:40;7.68;;;5.60;;
18104;SDS011;9179;50.968;3.134;2024-02-21T08:03:07;10.10;;;5.97;;
18104;SDS011;9179;50.968;3.134;2024-02-21T08:05:34;8.98;;;6.40;;
18104;SDS011;9179;50.968;3.134;2024-02-21T08:08:03;6.03;;;5.53;;
18104;SDS011;9179;50.968;3.134;2024-02-21T08:10:30;6.40;;;5.80;;
18104;SDS011;9179;50.968;3.134;2024-02-21T08:12:57;11.27;;;7.43;;
18104;SDS011;9179;50.968;3.134;2024-02-21T08:15:24;9.00;;;6.45;;
18104;SDS011;9179;50.968;3.134;2024-02-21T08:17:54;6.72;;;6.10;;
18104;SDS011;9179;50.968;3.134;2024-02-21T08:20:24;7.68;;;6.88;;
18104;SDS011;9179;50.968;3.134;2024-02-21T08:22:51;6.85;;;6.20;;
18104;SDS011;9179;50.968;3.134;2024-02-21T08:25:19;8.10;;;6.32;;
18104;SDS011;9179;50.968;3.134;2024-02-21T08:27:46;9.15;;;7.70;;
18104;SDS011;9179;50.968;3.134;2024-02-21T08:30:13;7.57;;;6.90;;
18104;SDS011;9179;50.968;3.134;2024-02-21T08:32:41;8.70;;;6.75;;
18104;SDS011;9179;50.968;3.134;2024-02-21T08:35:08;7.80;;;7.00;;
18104;SDS011;9179;50.968;3.134;2024-02-21T08:37:35;7.43;;;6.38;;
18104;SDS011;9179;50.968;3.134;2024-02-21T08:40:02;7.28;;;6.38;;
18104;SDS011;9179;50.968;3.134;2024-02-21T08:42:34;7.65;;;6.35;;
18104;SDS011;9179;50.968;3.134;2024-02-21T08:45:01;9.23;;;6.22;;
18104;SDS011;9179;50.968;3.134;2024-02-21T08:47:29;8.30;;;7.40;;
18104;SDS011;9179;50.968;3.134;2024-02-21T08:49:56;10.98;;;7.10;;
18104;SDS011;9179;50.968;3.134;2024-02-21T08:52:22;9.48;;;6.40;;
18104;SDS011;9179;50.968;3.134;2024-02-21T08:54:49;8.30;;;7.15;;
18104;SDS011;9179;50.968;3.134;2024-02-21T08:57:18;9.82;;;7.30;;
18104;SDS011;9179;50.968;3.134;2024-02-21T08:59:47;8.85;;;7.10;;
18104;SDS011;9179;50.968;3.134;2024-02-21T09:02:13;11.55;;;8.00;;
18104;SDS011;9179;50.968;3.134;2024-02-21T09:04:42;8.85;;;7.57;;
18104;SDS011;9179;50.968;3.134;2024-02-21T09:07:10;9.90;;;8.27;;
18104;SDS011;9179;50.968;3.134;2024-02-21T09:09:36;9.05;;;7.70;;
18104;SDS011;9179;50.968;3.134;2024-02-21T09:12:05;8.30;;;7.43;;
18104;SDS011;9179;50.968;3.134;2024-02-21T09:14:32;9.65;;;7.75;;
18104;SDS011;9179;50.968;3.134;2024-02-21T09:17:01;9.82;;;8.38;;
18104;SDS011;9179;50.968;3.134;2024-02-21T09:19:28;12.45;;;8.02;;
18104;SDS011;9179;50.968;3.134;2024-02-21T09:21:55;9.02;;;7.60;;
18104;SDS011;9179;50.968;3.134;2024-02-21T09:24:22;9.50;;;8.50;;
18104;SDS011;9179;50.968;3.134;2024-02-21T09:26:49;10.63;;;7.30;;
18104;SDS011;9179;50.968;3.134;2024-02-21T09:29:16;9.55;;;8.05;;
18104;SDS011;9179;50.968;3.134;2024-02-21T09:31:43;11.32;;;9.45;;
18104;SDS011;9179;50.968;3.134;2024-02-21T09:34:12;9.55;;;7.38;;
18104;SDS011;9179;50.968;3.134;2024-02-21T09:36:39;9.07;;;8.10;;
18104;SDS011;9179;50.968;3.134;2024-02-21T09:39:06;10.18;;;7.75;;
18104;SDS011;9179;50.968;3.134;2024-02-21T09:41:32;9.48;;;7.65;;
18104;SDS011;9179;50.968;3.134;2024-02-21T09:44:04;7.50;;;6.72;;
18104;SDS011;9179;50.968;3.134;2024-02-21T09:49:21;8.43;;;7.18;;
18104;SDS011;9179;50.968;3.134;2024-02-21T09:51:56;9.75;;;7.72;;
18104;SDS011;9179;50.968;3.134;2024-02-21T09:54:28;10.20;;;7.68;;
18104;SDS011;9179;50.968;3.134;2024-02-21T09:56:55;8.38;;;7.57;;
18104;SDS011;9179;50.968;3.134;2024-02-21T09:59:22;10.23;;;7.18;;
18104;SDS011;9179;50.968;3.134;2024-02-21T10:01:50;7.72;;;6.93;;
18104;SDS011;9179;50.968;3.134;2024-02-21T10:04:17;7.18;;;6.13;;
18104;SDS011;9179;50.968;3.134;2024-02-21T10:06:46;9.73;;;5.88;;
18104;SDS011;9179;50.968;3.134;2024-02-21T10:09:19;11.38;;;7.65;;
18104;SDS011;9179;50.968;3.134;2024-02-21T10:11:48;7.88;;;7.13;;
18104;SDS011;9179;50.968;3.134;2024-02-21T10:14:15;8.20;;;6.72;;
18104;SDS011;9179;50.968;3.134;2024-02-21T10:16:43;7.97;;;6.78;;
18104;SDS011;9179;50.968;3.134;2024-02-21T10:19:17;8.80;;;7.40;;
18104;SDS011;9179;50.968;3.134;2024-02-21T10:21:58;7.13;;;6.22;;
18104;SDS011;9179;50.968;3.134;2024-02-21T10:24:29;6.38;;;5.88;;
18104;SDS011;9179;50.968;3.134;2024-02-21T10:27:03;10.68;;;6.20;;
18104;SDS011;9179;50.968;3.134;2024-02-21T10:29:33;7.55;;;6.15;;
18104;SDS011;9179;50.968;3.134;2024-02-21T10:32:06;7.55;;;6.85;;
18104;SDS011;9179;50.968;3.134;2024-02-21T10:34:34;9.13;;;6.85;;
18104;SDS011;9179;50.968;3.134;2024-02-21T10:37:03;6.60;;;5.55;;
18104;SDS011;9179;50.968;3.134;2024-02-21T10:39:31;9.30;;;6.75;;
18104;SDS011;9179;50.968;3.134;2024-02-21T10:41:59;6.25;;;5.65;;
18104;SDS011;9179;50.968;3.134;2024-02-21T10:44:29;8.63;;;6.68;;
18104;SDS011;9179;50.968;3.134;2024-02-21T10:46:57;8.02;;;6.78;;
18104;SDS011;9179;50.968;3.134;2024-02-21T10:49:24;7.78;;;6.07;;
18104;SDS011;9179;50.968;3.134;2024-02-21T10:51:54;7.75;;;6.50;;
18104;SDS011;9179;50.968;3.134;2024-02-21T10:54:38;7.20;;;6.50;;
18104;SDS011;9179;50.968;3.134;2024-02-21T10:57:07;8.55;;;7.00;;
18104;SDS011;9179;50.968;3.134;2024-02-21T10:59:37;6.93;;;6.20;;
18104;SDS011;9179;50.968;3.134;2024-02-21T11:02:05;9.40;;;6.80;;
18104;SDS011;9179;50.968;3.134;2024-02-21T11:04:33;7.65;;;6.50;;
18104;SDS011;9179;50.968;3.134;2024-02-21T11:07:02;7.95;;;6.55;;
18104;SDS011;9179;50.968;3.134;2024-02-21T11:09:30;9.50;;;6.55;;
18104;SDS011;9179;50.968;3.134;2024-02-21T11:12:01;8.30;;;6.75;;
18104;SDS011;9179;50.968;3.134;2024-02-21T11:14:28;9.15;;;7.05;;
18104;SDS011;9179;50.968;3.134;2024-02-21T11:16:57;8.82;;;6.55;;
18104;SDS011;9179;50.968;3.134;2024-02-21T11:19:25;8.07;;;7.38;;
18104;SDS011;9179;50.968;3.134;2024-02-21T11:21:53;7.72;;;6.95;;
18104;SDS011;9179;50.968;3.134;2024-02-21T11:24:25;9.00;;;7.30;;
18104;SDS011;9179;50.968;3.134;2024-02-21T11:26:54;7.43;;;6.82;;
18104;SDS011;9179;50.968;3.134;2024-02-21T11:29:25;6.97;;;5.75;;
18104;SDS011;9179;50.968;3.134;2024-02-21T11:31:53;7.60;;;6.70;;
18104;SDS011;9179;50.968;3.134;2024-02-21T11:34:21;8.05;;;7.35;;
18104;SDS011;9179;50.968;3.134;2024-02-21T11:36:48;9.57;;;6.53;;
18104;SDS011;9179;50.968;3.134;2024-02-21T11:39:19;7.15;;;6.32;;
18104;SDS011;9179;50.968;3.134;2024-02-21T11:41:48;8.15;;;6.40;;
18104;SDS011;9179;50.968;3.134;2024-02-21T11:44:30;7.57;;;6.15;;
18104;SDS011;9179;50.968;3.134;2024-02-21T11:46:57;6.10;;;5.35;;
18104;SDS011;9179;50.968;3.134;2024-02-21T11:49:25;6.63;;;5.88;;
18104;SDS011;9179;50.968;3.134;2024-02-21T11:51:57;7.45;;;6.65;;
18104;SDS011;9179;50.968;3.134;2024-02-21T11:54:25;10.00;;;5.70;;
18104;SDS011;9179;50.968;3.134;2024-02-21T11:56:52;6.40;;;5.78;;
18104;SDS011;9179;50.968;3.134;2024-02-21T11:59:19;8.43;;;6.47;;
18104;SDS011;9179;50.968;3.134;2024-02-21T12:01:48;7.10;;;5.60;;
18104;SDS011;9179;50.968;3.134;2024-02-21T12:04:17;7.53;;;6.03;;
18104;SDS011;9179;50.968;3.134;2024-02-21T12:06:45;7.05;;;5.93;;
18104;SDS011;9179;50.968;3.134;2024-02-21T12:09:13;6.82;;;6.13;;
18104;SDS011;9179;50.968;3.134;2024-02-21T12:11:41;6.28;;;5.63;;
18104;SDS011;9179;50.968;3.134;2024-02-21T12:14:08;6.95;;;5.38;;
18104;SDS011;9179;50.968;3.134;2024-02-21T12:16:35;5.35;;;4.85;;
18104;SDS011;9179;50.968;3.134;2024-02-21T12:19:04;6.30;;;5.43;;
18104;SDS011;9179;50.968;3.134;2024-02-21T12:21:31;5.53;;;5.03;;
18104;SDS011;9179;50.968;3.134;2024-02-21T12:24:10;5.50;;;4.88;;
18104;SDS011;9179;50.968;3.134;2024-02-21T12:26:38;6.50;;;5.25;;
18104;SDS011;9179;50.968;3.134;2024-02-21T12:29:05;8.88;;;5.03;;
18104;SDS011;9179;50.968;3.134;2024-02-21T12:31:34;5.82;;;4.95;;
18104;SDS011;9179;50.968;3.134;2024-02-21T12:34:01;5.03;;;4.53;;
18104;SDS011;9179;50.968;3.134;2024-02-21T12:36:30;5.13;;;4.60;;
18104;SDS011;9179;50.968;3.134;2024-02-21T12:38:57;5.05;;;4.63;;
18104;SDS011;9179;50.968;3.134;2024-02-21T12:41:24;5.30;;;4.47;;
18104;SDS011;9179;50.968;3.134;2024-02-21T12:43:52;4.93;;;4.43;;
18104;SDS011;9179;50.968;3.134;2024-02-21T12:46:19;5.22;;;4.63;;
18104;SDS011;9179;50.968;3.134;2024-02-21T12:48:46;7.13;;;5.05;;
18104;SDS011;9179;50.968;3.134;2024-02-21T12:51:13;5.40;;;5.00;;
18104;SDS011;9179;50.968;3.134;2024-02-21T12:53:42;5.38;;;4.88;;
18104;SDS011;9179;50.968;3.134;2024-02-21T12:56:09;6.13;;;4.88;;
18104;SDS011;9179;50.968;3.134;2024-02-21T12:58:36;5.93;;;5.10;;
18104;SDS011;9179;50.968;3.134;2024-02-21T13:01:03;6.80;;;5.15;;
18104;SDS011;9179;50.968;3.134;2024-02-21T13:03:30;6.05;;;5.43;;
18104;SDS011;9179;50.968;3.134;2024-02-21T13:05:57;5.68;;;5.18;;
18104;SDS011;9179;50.968;3.134;2024-02-21T13:08:24;6.15;;;5.53;;
18104;SDS011;9179;50.968;3.134;2024-02-21T13:10:52;5.88;;;4.80;;
18104;SDS011;9179;50.968;3.134;2024-02-21T13:13:19;4.75;;;4.45;;
18104;SDS011;9179;50.968;3.134;2024-02-21T13:15:46;6.78;;;4.85;;
18104;SDS011;9179;50.968;3.134;2024-02-21T13:18:13;5.07;;;4.63;;
18104;SDS011;9179;50.968;3.134;2024-02-21T13:20:40;5.95;;;5.35;;
18104;SDS011;9179;50.968;3.134;2024-02-21T13:23:07;6.78;;;6.00;;
18104;SDS011;9179;50.968;3.134;2024-02-21T13:25:34;6.88;;;5.18;;
18104;SDS011;9179;50.968;3.134;2024-02-21T13:28:03;5.35;;;4.80;;
18104;SDS011;9179;50.968;3.134;2024-02-21T13:30:30;6.38;;;4.80;;
18104;SDS011;9179;50.968;3.134;2024-02-21T13:32:57;7.47;;;5.60;;
18104;SDS011;9179;50.968;3.134;2024-02-21T13:35:24;7.75;;;6.05;;
18104;SDS011;9179;50.968;3.134;2024-02-21T13:37:51;5.82;;;5.32;;
18104;SDS011;9179;50.968;3.134;2024-02-21T13:40:17;5.80;;;5.30;;
18104;SDS011;9179;50.968;3.134;2024-02-21T13:42:44;6.63;;;5.80;;
18104;SDS011;9179;50.968;3.134;2024-02-21T13:45:13;6.55;;;5.72;;
18104;SDS011;9179;50.968;3.134;2024-02-21T13:47:40;8.45;;;6.47;;
18104;SDS011;9179;50.968;3.134;2024-02-21T13:50:07;6.28;;;5.65;;
18104;SDS011;9179;50.968;3.134;2024-02-21T13:52:36;5.55;;;5.05;;
18104;SDS011;9179;50.968;3.134;2024-02-21T13:55:03;5.22;;;4.78;;
18104;SDS011;9179;50.968;3.134;2024-02-21T13:57:33;6.28;;;4.97;;
18104;SDS011;9179;50.968;3.134;2024-02-21T14:00:00;6.07;;;5.47;;
18104;SDS011;9179;50.968;3.134;2024-02-21T14:02:29;6.43;;;5.75;;
18104;SDS011;9179;50.968;3.134;2024-02-21T14:04:56;5.93;;;5.30;;
18104;SDS011;9179;50.968;3.134;2024-02-21T14:07:24;5.68;;;4.90;;
18104;SDS011;9179;50.968;3.134;2024-02-21T14:09:50;6.15;;;5.55;;
18104;SDS011;9179;50.968;3.134;2024-02-21T14:12:17;8.30;;;5.05;;
18104;SDS011;9179;50.968;3.134;2024-02-21T14:14:46;6.28;;;5.70;;
18104;SDS011;9179;50.968;3.134;2024-02-21T14:17:15;6.38;;;5.65;;
18104;SDS011;9179;50.968;3.134;2024-02-21T14:19:43;5.82;;;5.25;;
18104;SDS011;9179;50.968;3.134;2024-02-21T14:22:10;6.00;;;5.60;;
18104;SDS011;9179;50.968;3.134;2024-02-21T14:24:37;7.45;;;5.38;;
18104;SDS011;9179;50.968;3.134;2024-02-21T14:27:04;5.78;;;5.28;;
18104;SDS011;9179;50.968;3.134;2024-02-21T14:29:31;7.65;;;5.63;;
18104;SDS011;9179;50.968;3.134;2024-02-21T14:31:58;7.63;;;5.78;;
18104;SDS011;9179;50.968;3.134;2024-02-21T14:34:25;5.95;;;5.45;;
18104;SDS011;9179;50.968;3.134;2024-02-21T14:36:53;6.40;;;5.63;;
18104;SDS011;9179;50.968;3.134;2024-02-21T14:39:20;6.50;;;5.90;;
18104;SDS011;9179;50.968;3.134;2024-02-21T14:41:48;9.63;;;6.00;;
18104;SDS011;9179;50.968;3.134;2024-02-21T14:44:15;5.45;;;4.95;;
18104;SDS011;9179;50.968;3.134;2024-02-21T14:46:42;6.45;;;5.85;;
18104;SDS011;9179;50.968;3.134;2024-02-21T14:49:10;7.35;;;6.57;;
18104;SDS011;9179;50.968;3.134;2024-02-21T14:51:37;6.72;;;5.72;;
18104;SDS011;9179;50.968;3.134;2024-02-21T14:54:05;5.90;;;5.00;;
18104;SDS011;9179;50.968;3.134;2024-02-21T14:56:33;9.48;;;6.00;;
18104;SDS011;9179;50.968;3.134;2024-02-21T14:59:00;6.53;;;5.90;;
18104;SDS011;9179;50.968;3.134;2024-02-21T15:01:27;6.43;;;5.80;;
18104;SDS011;9179;50.968;3.134;2024-02-21T15:03:54;7.38;;;5.53;;
18104;SDS011;9179;50.968;3.134;2024-02-21T15:06:21;8.98;;;6.10;;